Time;durP1;ratioP1;P1;durP2;ratioP2;P2;SDS_P1;SDS_P2;PMS_P1;PMS_P2;Temp;Humidity;BMP_temperature;BMP_pressure;BME280_temperature;BME280_humidity;BME280_pressure;Samples;Min_cycle;Max_cycle;Signal;HPM_P1;HPM_P2
2024/03/23 00:01:29;;;;;;;8.70;2.53;;;;;;;7.28;100.00;101162.72;5050413;28;20255;-77
2024/03/23 00:03:55;;;;;;;5.68;1.65;;;;;;;7.27;100.00;101152.31;5040615;28;20048;-78
2024/03/23 00:06:21;;;;;;;3.70;1.70;;;;;;;7.28;100.00;101159.25;5043244;28;20051;-77
2024/03/23 00:08:48;;;;;;;5.05;1.42;;;;;;;7.27;100.00;101158.38;5043340;28;20033;-78
2024/03/23 00:11:14;;;;;;;6.55;1.70;;;;;;;7.21;100.00;101163.72;5025791;28;20035;-77
2024/03/23 00:13:40;;;;;;;7.65;2.47;;;;;;;7.19;100.00;101160.31;5020551;28;20081;-80
2024/03/23 00:16:07;;;;;;;8.73;1.55;;;;;;;7.19;100.00;101167.28;5022703;28;20041;-80
2024/03/23 00:18:33;;;;;;;10.85;2.17;;;;;;;7.13;100.00;101164.78;5022263;28;20212;-80
2024/03/23 00:21:00;;;;;;;5.43;1.50;;;;;;;7.17;100.00;101161.22;5038569;28;20296;-80
2024/03/23 00:23:27;;;;;;;8.60;2.22;;;;;;;7.16;100.00;101154.31;5041784;28;20264;-80
2024/03/23 00:25:53;;;;;;;10.38;2.28;;;;;;;7.16;100.00;101149.94;5037193;28;20359;-80
2024/03/23 00:28:20;;;;;;;7.88;1.92;;;;;;;7.03;100.00;101144.13;5043321;28;20037;-79
2024/03/23 00:30:46;;;;;;;7.05;1.73;;;;;;;7.00;100.00;101146.78;5042249;28;20038;-79
2024/03/23 00:33:13;;;;;;;6.68;1.88;;;;;;;6.96;100.00;101146.91;5024283;28;20037;-79
2024/03/23 00:35:40;;;;;;;6.50;1.95;;;;;;;6.96;100.00;101139.94;5045091;28;20123;-79
2024/03/23 00:38:07;;;;;;;4.20;1.48;;;;;;;6.98;100.00;101138.16;5043245;28;20053;-79
2024/03/23 00:40:33;;;;;;;9.27;1.80;;;;;;;6.98;100.00;101126.91;5039304;28;20339;-79
2024/03/23 00:43:00;;;;;;;8.45;1.60;;;;;;;6.99;100.00;101126.88;5015316;28;20057;-79
2024/03/23 00:45:26;;;;;;;5.07;1.63;;;;;;;7.01;100.00;101113.81;5028494;28;20074;-79
2024/03/23 00:47:53;;;;;;;3.63;1.92;;;;;;;6.94;100.00;101117.44;5040591;28;20037;-79
2024/03/23 00:50:19;;;;;;;5.45;1.80;;;;;;;6.89;100.00;101115.81;5039444;28;20051;-78
2024/03/23 00:52:46;;;;;;;5.70;1.77;;;;;;;6.92;100.00;101117.47;5041260;28;20025;-79
2024/03/23 00:55:12;;;;;;;3.70;1.58;;;;;;;6.92;100.00;101114.88;5039002;28;20033;-78
2024/03/23 00:57:37;;;;;;;4.80;1.80;;;;;;;6.92;100.00;101104.44;5047233;28;20040;-79
2024/03/23 01:00:05;;;;;;;6.82;2.38;;;;;;;6.92;100.00;101104.44;5042150;28;20052;-78
2024/03/23 01:02:31;;;;;;;6.50;2.05;;;;;;;6.94;100.00;101099.22;5038347;28;20052;-78
2024/03/23 01:04:56;;;;;;;8.27;2.25;;;;;;;6.94;100.00;101097.47;5054336;28;20094;-78
2024/03/23 01:07:21;;;;;;;9.15;2.42;;;;;;;6.96;100.00;101100.03;5053240;28;20340;-78
2024/03/23 01:09:47;;;;;;;10.40;2.58;;;;;;;6.98;100.00;101091.28;5078168;28;20371;-78
2024/03/23 01:12:12;;;;;;;6.25;2.33;;;;;;;6.99;100.00;101093.00;5063583;28;20390;-78
2024/03/23 01:14:37;;;;;;;9.02;2.38;;;;;;;7.01;100.00;101086.03;5060609;28;20063;-78
2024/03/23 01:17:03;;;;;;;7.30;2.63;;;;;;;7.00;100.00;101081.69;5042485;28;20096;-78
2024/03/23 01:19:28;;;;;;;8.85;2.92;;;;;;;7.03;100.00;101093.81;5059945;28;20040;-79
2024/03/23 01:21:54;;;;;;;7.95;2.40;;;;;;;7.03;100.00;101094.66;5042973;28;20033;-78
2024/03/23 01:24:19;;;;;;;8.38;2.42;;;;;;;6.97;100.00;101089.59;5062605;28;20036;-78
2024/03/23 01:26:44;;;;;;;10.55;2.78;;;;;;;6.94;100.00;101091.41;5067247;28;20043;-78
2024/03/23 01:29:11;;;;;;;5.15;2.05;;;;;;;6.94;100.00;101084.44;5058142;28;20052;-78
2024/03/23 01:31:36;;;;;;;9.65;2.75;;;;;;;6.97;100.00;101076.56;5078430;28;20051;-78
2024/03/23 01:34:03;;;;;;;8.98;2.10;;;;;;;6.99;100.00;101085.19;5079859;28;20028;-78
2024/03/23 01:36:28;;;;;;;11.75;2.35;;;;;;;6.99;100.00;101084.34;5061676;28;20207;-79
2024/03/23 01:38:53;;;;;;;7.50;2.13;;;;;;;6.99;100.00;101081.75;5072747;28;20037;-79
2024/03/23 01:41:19;;;;;;;6.05;1.98;;;;;;;6.98;100.00;101086.09;5073754;28;20077;-78
2024/03/23 01:43:45;;;;;;;9.75;2.08;;;;;;;6.97;100.00;101080.91;5078935;28;20319;-78
2024/03/23 01:46:11;;;;;;;7.70;2.20;;;;;;;7.01;100.00;101083.41;5064346;28;20112;-78
2024/03/23 01:48:36;;;;;;;10.52;2.28;;;;;;;7.00;100.00;101080.84;5058181;28;20037;-79
2024/03/23 01:51:02;;;;;;;5.30;1.60;;;;;;;6.96;100.00;101085.25;5058581;28;20025;-79
2024/03/23 01:53:28;;;;;;;7.15;2.15;;;;;;;6.92;100.00;101076.66;5066529;28;20036;-78
2024/03/23 01:55:54;;;;;;;9.30;2.00;;;;;;;6.95;100.00;101077.47;5072676;28;20103;-78
2024/03/23 01:58:19;;;;;;;9.43;2.08;;;;;;;6.91;100.00;101074.97;5073622;28;20032;-78
2024/03/23 02:00:45;;;;;;;6.82;1.60;;;;;;;6.87;100.00;101072.44;5050456;28;20327;-79
2024/03/23 02:03:24;;;;;;;2.80;1.20;;;;;;;6.92;100.00;101075.81;5071318;28;20219;-79
2024/03/23 02:05:50;;;;;;;7.88;1.90;;;;;;;6.90;100.00;101070.63;5075201;28;20053;-79
2024/03/23 02:08:17;;;;;;;5.00;1.60;;;;;;;6.88;100.00;101061.16;5078977;28;20082;-79
2024/03/23 02:10:43;;;;;;;8.32;2.40;;;;;;;6.86;100.00;101063.78;5070634;28;20060;-78
2024/03/23 02:13:09;;;;;;;8.35;1.73;;;;;;;6.86;100.00;101065.53;5060762;28;20354;-78
2024/03/23 02:15:34;;;;;;;7.53;1.65;;;;;;;6.84;100.00;101062.97;5063202;28;20275;-79
2024/03/23 02:18:00;;;;;;;7.95;1.48;;;;;;;6.82;100.00;101058.66;5072479;28;20036;-78
2024/03/23 02:20:25;;;;;;;5.85;1.38;;;;;;;6.80;100.00;101057.84;5075417;28;20044;-78
2024/03/23 02:22:53;;;;;;;4.93;1.50;;;;;;;6.82;100.00;101056.06;5040539;28;20037;-78
2024/03/23 02:25:18;;;;;;;4.10;1.30;;;;;;;6.79;100.00;101050.94;5059665;28;20339;-78
2024/03/23 02:27:43;;;;;;;4.70;1.33;;;;;;;6.75;100.00;101047.56;5061962;28;20041;-78
2024/03/23 02:30:09;;;;;;;9.73;2.33;;;;;;;6.72;100.00;101045.00;5064127;28;20037;-79
2024/03/23 02:32:34;;;;;;;11.55;1.95;;;;;;;6.68;100.00;101045.97;5067929;28;20199;-78
2024/03/23 02:35:00;;;;;;;8.90;2.17;;;;;;;6.67;100.00;101039.88;5051732;28;20104;-78
2024/03/23 02:37:25;;;;;;;5.75;1.60;;;;;;;6.68;100.00;101051.16;5061402;28;20044;-78
2024/03/23 02:39:50;;;;;;;4.60;1.52;;;;;;;6.70;100.00;101050.22;5078459;28;20066;-78
2024/03/23 02:42:17;;;;;;;7.13;1.63;;;;;;;6.67;100.00;101045.09;5067314;28;20239;-78
2024/03/23 02:44:43;;;;;;;9.25;1.80;;;;;;;6.64;100.00;101050.38;5071392;28;20036;-78
2024/03/23 02:47:08;;;;;;;5.47;1.33;;;;;;;6.61;100.00;101041.78;5059659;28;20258;-78
2024/03/23 02:49:34;;;;;;;12.77;1.95;;;;;;;6.48;100.00;101034.22;5065638;28;20208;-78
2024/03/23 02:51:59;;;;;;;9.85;1.80;;;;;;;6.42;100.00;101036.94;5062491;28;20041;-78
2024/03/23 02:54:24;;;;;;;5.18;1.73;;;;;;;6.39;100.00;101029.19;5064939;28;20024;-78
2024/03/23 02:56:50;;;;;;;8.30;1.70;;;;;;;6.41;100.00;101026.56;5058670;28;20347;-78
2024/03/23 02:59:15;;;;;;;6.72;1.55;;;;;;;6.40;100.00;101033.50;5058759;28;20075;-78
2024/03/23 03:01:40;;;;;;;7.93;1.92;;;;;;;6.38;100.00;101037.03;5058792;28;20040;-78
2024/03/23 03:04:06;;;;;;;5.43;1.83;;;;;;;6.32;100.00;101038.88;5057802;28;20071;-78
2024/03/23 03:06:31;;;;;;;10.50;1.58;;;;;;;6.28;100.00;101032.00;5046808;28;20056;-78
2024/03/23 03:08:57;;;;;;;8.02;1.45;;;;;;;6.30;100.00;101029.38;5058304;28;20049;-78
2024/03/23 03:11:22;;;;;;;7.00;1.70;;;;;;;6.29;100.00;101030.25;5067476;28;20095;-78
2024/03/23 03:13:47;;;;;;;4.65;1.40;;;;;;;6.29;100.00;101022.47;5062290;28;20364;-78
2024/03/23 03:16:13;;;;;;;2.97;1.20;;;;;;;6.28;100.00;101034.63;5061189;28;20047;-78
2024/03/23 03:18:38;;;;;;;7.05;1.75;;;;;;;6.19;100.00;101029.59;5049115;28;20052;-78
2024/03/23 03:21:06;;;;;;;9.23;1.92;;;;;;;6.19;100.00;101033.94;5064362;28;20044;-78
2024/03/23 03:23:33;;;;;;;12.30;2.13;;;;;;;6.12;100.00;101025.41;5074309;28;20044;-78
2024/03/23 03:25:59;;;;;;;13.13;2.00;;;;;;;6.06;100.00;101031.56;5070176;28;20104;-78
2024/03/23 03:28:26;;;;;;;8.13;1.73;;;;;;;6.05;100.00;101035.06;5057884;28;20107;-78
2024/03/23 03:30:51;;;;;;;7.85;1.67;;;;;;;6.02;100.00;101032.53;5060648;28;20107;-78
2024/03/23 03:33:17;;;;;;;7.13;1.60;;;;;;;6.02;100.00;101031.66;5069514;28;20063;-78
2024/03/23 03:35:43;;;;;;;8.73;2.00;;;;;;;6.01;100.00;101033.41;5057598;28;20032;-78
2024/03/23 03:38:08;;;;;;;6.07;1.65;;;;;;;5.99;100.00;101026.53;5042155;28;20029;-78
2024/03/23 03:40:34;;;;;;;5.25;1.50;;;;;;;5.93;100.00;101023.13;5056951;28;20029;-78
2024/03/23 03:42:59;;;;;;;4.60;1.45;;;;;;;5.94;100.00;101024.81;5060942;28;20048;-78
2024/03/23 03:45:24;;;;;;;9.23;1.48;;;;;;;5.92;100.00;101016.19;5074384;28;20036;-78
2024/03/23 03:47:50;;;;;;;4.63;1.10;;;;;;;5.95;100.00;101017.91;5064718;28;20351;-78
2024/03/23 03:50:15;;;;;;;6.22;1.40;;;;;;;5.99;100.00;101010.94;5057423;28;20107;-78
2024/03/23 03:52:40;;;;;;;7.50;2.00;;;;;;;6.00;100.00;101012.63;5070668;28;20062;-78
2024/03/23 03:55:14;;;;;;;11.70;1.52;;;;;;;6.03;100.00;100997.81;5077606;28;20040;-78
2024/03/23 03:57:40;;;;;;;7.20;1.50;;;;;;;6.00;100.00;101000.47;5058419;28;20036;-78
2024/03/23 04:00:06;;;;;;;4.03;1.48;;;;;;;6.06;100.00;100994.31;5075335;28;20190;-78
2024/03/23 04:02:31;;;;;;;4.97;1.42;;;;;;;6.11;100.00;100998.56;5071822;28;20043;-78
2024/03/23 04:04:57;;;;;;;3.38;1.13;;;;;;;6.15;100.00;100999.34;5071888;28;20032;-78
2024/03/23 04:07:22;;;;;;;5.97;1.38;;;;;;;6.17;100.00;100994.09;5058464;28;20051;-78
2024/03/23 04:09:49;;;;;;;8.15;1.75;;;;;;;6.11;100.00;100990.75;5069457;28;20418;-78
2024/03/23 04:12:15;;;;;;;11.85;1.70;;;;;;;6.11;100.00;100997.66;5076364;28;20347;-78
2024/03/23 04:14:40;;;;;;;4.70;1.30;;;;;;;6.10;100.00;100986.41;5059100;28;20045;-78
2024/03/23 04:17:06;;;;;;;9.32;1.45;;;;;;;6.09;100.00;100989.03;5071532;28;20032;-78
2024/03/23 04:19:31;;;;;;;7.63;1.48;;;;;;;6.07;100.00;100983.03;5064760;28;20040;-78
2024/03/23 04:21:56;;;;;;;6.45;1.20;;;;;;;6.06;100.00;100986.53;5077007;28;20033;-78
2024/03/23 04:24:22;;;;;;;8.23;1.67;;;;;;;5.94;100.00;100993.63;5054280;28;20111;-78
2024/03/23 04:26:48;;;;;;;5.82;1.30;;;;;;;5.88;100.00;100990.31;5067331;28;20060;-78
2024/03/23 04:29:13;;;;;;;8.57;2.47;;;;;;;5.88;100.00;100985.94;5060602;28;20047;-78
2024/03/23 04:31:39;;;;;;;8.75;1.48;;;;;;;5.87;100.00;100992.03;5079396;28;20040;-78
2024/03/23 04:34:04;;;;;;;6.78;1.13;;;;;;;5.93;100.00;100991.94;5074288;28;20037;-78
2024/03/23 04:36:30;;;;;;;12.15;1.50;;;;;;;5.89;100.00;100984.19;5064298;28;20051;-78
2024/03/23 04:38:57;;;;;;;10.00;1.42;;;;;;;5.80;100.00;100989.56;5062773;28;20050;-78
2024/03/23 04:41:23;;;;;;;5.65;1.48;;;;;;;5.75;100.00;100989.66;5069896;28;20037;-78
2024/03/23 04:43:48;;;;;;;4.00;1.35;;;;;;;5.70;100.00;100981.09;5071738;28;20143;-78
2024/03/23 04:46:15;;;;;;;11.73;2.13;;;;;;;5.60;100.00;100982.97;5075493;28;20339;-78
2024/03/23 04:48:40;;;;;;;10.15;2.13;;;;;;;5.55;100.00;100984.84;5062860;28;20037;-78
2024/03/23 04:51:06;;;;;;;5.50;1.58;;;;;;;5.53;100.00;100986.56;5044691;28;20443;-78
2024/03/23 04:53:31;;;;;;;11.48;2.17;;;;;;;5.49;100.00;100993.56;5072902;28;20089;-78
2024/03/23 04:55:57;;;;;;;12.35;2.13;;;;;;;5.46;100.00;100991.03;5061279;28;20102;-78
2024/03/23 04:58:23;;;;;;;15.07;1.58;;;;;;;5.50;100.00;100989.25;5060419;28;20048;-78
2024/03/23 05:00:53;;;;;;;7.95;1.75;;;;;;;5.49;100.00;100985.75;5066014;28;20083;-78
2024/03/23 05:03:20;;;;;;;19.00;2.83;;;;;;;5.44;100.00;100989.34;5060657;28;20064;-78
2024/03/23 05:05:46;;;;;;;5.47;1.80;;;;;;;5.47;100.00;100997.94;5070707;28;20335;-78
2024/03/23 05:08:12;;;;;;;5.80;1.48;;;;;;;5.50;100.00;100994.44;5080998;28;20039;-77
2024/03/23 05:10:38;;;;;;;11.45;2.10;;;;;;;5.49;100.00;100992.72;5069098;28;20343;-78
2024/03/23 05:13:03;;;;;;;9.95;2.00;;;;;;;5.50;100.00;101000.47;5064948;28;20051;-78
2024/03/23 05:15:29;;;;;;;22.27;2.45;;;;;;;5.51;100.00;100993.53;5060741;28;20037;-77
2024/03/23 05:17:55;;;;;;;10.10;2.15;;;;;;;5.58;100.00;100992.56;5078247;28;20032;-78
2024/03/23 05:20:21;;;;;;;9.00;2.35;;;;;;;5.58;100.00;100990.84;5080249;28;20063;-78
2024/03/23 05:22:46;;;;;;;6.68;1.95;;;;;;;5.62;100.00;100996.84;5070714;28;20079;-78
2024/03/23 05:25:12;;;;;;;10.43;2.00;;;;;;;5.67;100.00;101001.94;5043070;28;20033;-78
2024/03/23 05:27:37;;;;;;;10.07;1.95;;;;;;;5.75;100.00;100993.13;5064570;28;20048;-79
2024/03/23 05:30:03;;;;;;;10.35;2.25;;;;;;;5.79;100.00;100993.91;5059905;28;20061;-78
2024/03/23 05:32:29;;;;;;;12.15;2.08;;;;;;;5.84;100.00;100994.69;5062643;28;20340;-78
2024/03/23 05:34:57;;;;;;;13.10;2.85;;;;;;;5.86;100.00;100994.69;5079040;28;20095;-78
2024/03/23 05:37:23;;;;;;;6.75;2.00;;;;;;;5.89;100.00;100995.44;5051113;28;20056;-78
2024/03/23 05:39:51;;;;;;;9.63;2.15;;;;;;;5.93;100.00;100998.84;5060185;28;20382;-78
2024/03/23 05:42:18;;;;;;;15.50;2.17;;;;;;;5.95;100.00;100989.31;5064444;28;20021;-78
2024/03/23 05:44:47;;;;;;;8.88;2.50;;;;;;;5.94;100.00;100992.78;5074643;28;20037;-78
2024/03/23 05:47:14;;;;;;;;;;;;;;;5.90;100.00;100998.94;5068291;28;20078;-78
2024/03/23 05:49:41;;;;;;;7.45;1.92;;;;;;;5.93;100.00;100981.53;5059918;28;20212;-78
2024/03/23 05:52:07;;;;;;;6.63;2.42;;;;;;;5.96;100.00;100993.63;5050059;28;20024;-78
2024/03/23 05:54:32;;;;;;;9.10;2.25;;;;;;;5.87;100.00;100997.22;5061190;28;20031;-78
2024/03/23 05:56:57;;;;;;;9.98;1.85;;;;;;;5.88;100.00;100979.91;5078092;28;20118;-77
2024/03/23 05:59:23;;;;;;;13.45;1.95;;;;;;;5.85;100.00;100988.59;5073871;28;20028;-77
2024/03/23 06:01:48;;;;;;;5.40;2.13;;;;;;;5.81;100.00;100986.09;5074724;28;20130;-77
2024/03/23 06:04:14;;;;;;;8.13;1.80;;;;;;;5.88;100.00;100988.56;5075824;28;20133;-77
2024/03/23 06:06:39;;;;;;;5.03;1.30;;;;;;;5.97;100.00;100987.56;5062548;28;20355;-78
2024/03/23 06:09:05;;;;;;;7.32;1.80;;;;;;;5.95;100.00;100989.31;5066054;28;20230;-78
2024/03/23 06:11:30;;;;;;;7.07;1.48;;;;;;;6.01;100.00;100983.16;5065224;28;20040;-78
2024/03/23 06:13:56;;;;;;;6.75;2.20;;;;;;;6.03;100.00;100995.22;5072615;28;20032;-78
2024/03/23 06:16:24;;;;;;;4.15;1.58;;;;;;;6.06;100.00;100987.38;5071076;28;20041;-78
2024/03/23 06:18:50;;;;;;;6.55;2.30;;;;;;;6.06;100.00;100991.72;5059017;28;20028;-78
2024/03/23 06:21:16;;;;;;;9.65;2.35;;;;;;;6.06;100.00;100986.53;5066747;28;20066;-78
2024/03/23 06:23:42;;;;;;;7.80;2.53;;;;;;;6.06;100.00;100984.78;5048760;28;20029;-78
2024/03/23 06:26:08;;;;;;;8.20;2.50;;;;;;;6.05;100.00;100983.06;5068134;28;20231;-78
2024/03/23 06:28:34;;;;;;;14.07;2.28;;;;;;;6.05;100.00;100984.81;5068443;28;20036;-78
2024/03/23 06:30:59;;;;;;;10.82;1.80;;;;;;;6.03;100.00;100992.63;5069426;28;20284;-78
2024/03/23 06:33:24;;;;;;;12.23;1.90;;;;;;;6.06;100.00;100996.94;5064782;28;20044;-78
2024/03/23 06:35:52;;;;;;;6.63;1.80;;;;;;;6.07;100.00;100993.44;5066511;28;20056;-78
2024/03/23 06:38:17;;;;;;;3.65;1.70;;;;;;;6.02;100.00;100990.06;5068576;28;20357;-78
2024/03/23 06:40:47;;;;;;;14.13;3.58;;;;;;;6.02;100.00;100990.94;5064086;28;20036;-78
2024/03/23 06:43:13;;;;;;;12.07;2.05;;;;;;;6.08;100.00;100996.00;5065244;28;20266;-78
2024/03/23 06:45:38;;;;;;;4.13;1.67;;;;;;;6.12;100.00;100994.19;5068361;28;20032;-78
2024/03/23 06:48:04;;;;;;;13.10;2.10;;;;;;;6.10;100.00;100996.81;5075325;28;20044;-78
2024/03/23 06:50:29;;;;;;;6.22;1.58;;;;;;;6.12;100.00;100992.44;5066793;28;20258;-78
2024/03/23 06:52:55;;;;;;;9.45;2.08;;;;;;;6.17;100.00;100989.75;5066329;28;20377;-78
2024/03/23 06:55:20;;;;;;;11.07;1.77;;;;;;;6.26;100.00;100992.19;5074548;28;20064;-78
2024/03/23 06:57:46;;;;;;;10.60;1.80;;;;;;;6.30;100.00;100996.41;5074415;28;20028;-78
2024/03/23 07:00:13;;;;;;;6.35;1.42;;;;;;;6.29;100.00;100988.66;5048629;28;20034;-78
2024/03/23 07:02:38;;;;;;;9.57;1.67;;;;;;;6.34;100.00;100999.81;5065086;28;20231;-78
2024/03/23 07:05:04;;;;;;;10.38;2.25;;;;;;;6.31;100.00;100999.88;5071109;28;20029;-78
2024/03/23 07:07:30;;;;;;;11.05;2.22;;;;;;;6.19;100.00;100997.53;5062936;28;20346;-77
2024/03/23 07:09:55;;;;;;;16.80;2.25;;;;;;;6.26;100.00;100997.38;5063186;28;20040;-78
2024/03/23 07:12:21;;;;;;;15.18;2.33;;;;;;;6.31;100.00;100998.16;5059114;28;20028;-78
2024/03/23 07:14:46;;;;;;;5.50;1.85;;;;;;;6.33;100.00;100998.09;5074602;28;20370;-78
2024/03/23 07:17:11;;;;;;;7.25;1.55;;;;;;;6.41;100.00;101000.56;5072150;28;20066;-78
2024/03/23 07:19:37;;;;;;;6.47;1.55;;;;;;;6.42;100.00;100995.31;5065124;28;20029;-78
2024/03/23 07:22:02;;;;;;;7.43;1.58;;;;;;;6.43;100.00;100999.63;5073750;28;20106;-78
2024/03/23 07:24:27;;;;;;;4.95;1.85;;;;;;;6.47;100.00;100993.47;5065482;28;20119;-78
2024/03/23 07:26:54;;;;;;;5.80;1.55;;;;;;;6.53;100.00;100995.94;5061385;28;20083;-77
2024/03/23 07:29:19;;;;;;;8.38;1.90;;;;;;;6.57;100.00;101004.56;5057618;28;20324;-78
2024/03/23 07:31:44;;;;;;;7.60;1.73;;;;;;;6.56;100.00;101002.81;5058103;28;20040;-79
2024/03/23 07:34:10;;;;;;;4.50;1.38;;;;;;;6.42;100.00;100999.66;5057714;28;20040;-77
2024/03/23 07:36:35;;;;;;;10.65;2.25;;;;;;;6.45;100.00;100999.59;5071988;28;20056;-78
2024/03/23 07:39:01;;;;;;;8.60;1.67;;;;;;;6.43;100.00;101006.59;5060746;28;20040;-80
2024/03/23 07:41:27;;;;;;;6.13;1.70;;;;;;;6.46;100.00;101001.31;5069955;28;20032;-79
2024/03/23 07:43:53;;;;;;;10.75;1.60;;;;;;;6.50;100.00;100990.81;5067362;28;20312;-80
2024/03/23 07:46:20;;;;;;;7.90;1.58;;;;;;;6.51;100.00;100992.53;5071344;28;20622;-78
2024/03/23 07:48:46;;;;;;;9.75;1.95;;;;;;;6.34;100.00;100998.06;5065969;28;20032;-76
2024/03/23 07:51:17;;;;;;;11.13;1.63;;;;;;;6.39;100.00;100997.97;5076874;28;20035;-77
2024/03/23 07:53:44;;;;;;;10.48;2.40;;;;;;;6.43;100.00;100993.56;5050669;28;20099;-77
2024/03/23 07:56:10;;;;;;;4.90;1.10;;;;;;;6.35;100.00;100998.94;5051532;28;20028;-77
2024/03/23 07:58:36;;;;;;;8.15;1.60;;;;;;;6.36;100.00;100992.84;5066866;28;20026;-77
2024/03/23 08:01:15;;;;;;;8.15;1.95;;;;;;;6.38;100.00;100987.59;5056109;28;20040;-77
2024/03/23 08:03:43;;;;;;;7.35;1.50;;;;;;;6.41;100.00;101003.16;5049771;28;20037;-77
2024/03/23 08:06:16;;;;;;;6.20;1.65;;;;;;;6.43;100.00;100985.78;5066832;28;20109;-77
2024/03/23 08:08:43;;;;;;;8.70;1.98;;;;;;;6.46;100.00;100993.53;5059230;28;20102;-78
2024/03/23 08:11:08;;;;;;;6.20;1.85;;;;;;;6.49;100.00;100991.72;5051576;28;20020;-77
2024/03/23 08:13:35;;;;;;;14.95;2.20;;;;;;;6.56;100.00;100992.41;5067936;28;20238;-77
2024/03/23 08:16:01;;;;;;;7.43;1.98;;;;;;;6.52;100.00;100996.81;5056805;28;20149;-77
2024/03/23 08:18:27;;;;;;;9.73;1.88;;;;;;;6.50;100.00;100995.16;5062224;28;20036;-78
2024/03/23 08:21:00;;;;;;;11.00;1.80;;;;;;;6.51;100.00;101000.34;5056703;28;20328;-76
2024/03/23 08:23:27;;;;;;;8.50;1.83;;;;;;;6.45;99.05;100997.84;5060978;28;20386;-77
2024/03/23 08:25:57;;;;;;;10.88;2.22;;;;;;;6.42;99.25;101000.53;5059812;28;20100;-77
2024/03/23 08:28:22;;;;;;;9.18;2.45;;;;;;;6.48;99.82;100996.94;5063128;28;20044;-78
2024/03/23 08:30:49;;;;;;;16.80;1.98;;;;;;;6.56;100.00;100999.38;5037311;28;20025;-82
2024/03/23 08:33:15;;;;;;;7.90;2.60;;;;;;;6.61;99.49;100989.72;5057038;28;20036;-82
2024/03/23 08:35:41;;;;;;;15.98;2.17;;;;;;;6.67;99.88;100997.38;5059493;28;20048;-82
2024/03/23 08:38:06;;;;;;;9.65;2.00;;;;;;;6.67;98.80;100993.03;5059012;28;20033;-83
2024/03/23 08:40:32;;;;;;;10.23;2.42;;;;;;;6.69;98.44;100987.78;5069768;28;20045;-81
2024/03/23 08:42:57;;;;;;;12.88;2.30;;;;;;;6.76;97.88;100981.56;5066646;28;20108;-83
2024/03/23 08:45:24;;;;;;;10.15;2.33;;;;;;;6.81;98.65;100989.28;5061388;28;20096;-79
2024/03/23 08:47:49;;;;;;;13.15;2.15;;;;;;;6.64;99.65;100992.25;5056223;28;20036;-77
2024/03/23 08:50:15;;;;;;;17.05;2.10;;;;;;;6.46;100.00;100993.53;5055788;28;20381;-78
2024/03/23 08:52:40;;;;;;;14.10;2.88;;;;;;;6.41;100.00;100992.75;5056653;28;20067;-77
2024/03/23 08:55:06;;;;;;;11.00;1.95;;;;;;;6.33;100.00;101001.56;5065266;28;20033;-77
2024/03/23 08:57:31;;;;;;;12.73;2.35;;;;;;;6.36;100.00;101000.63;5055660;28;20462;-78
2024/03/23 08:59:57;;;;;;;13.98;2.28;;;;;;;6.39;100.00;100995.38;5065295;28;20032;-77
2024/03/23 09:02:22;;;;;;;13.50;1.98;;;;;;;6.40;100.00;100993.63;5066785;28;20220;-78
2024/03/23 09:04:47;;;;;;;6.97;2.05;;;;;;;6.41;100.00;101009.22;5066308;28;20126;-77
2024/03/23 09:07:13;;;;;;;5.85;1.70;;;;;;;6.45;100.00;101000.44;5054641;28;20056;-77
2024/03/23 09:09:39;;;;;;;8.07;1.55;;;;;;;6.54;100.00;100995.03;5037351;28;20233;-77
2024/03/23 09:12:05;;;;;;;8.00;1.58;;;;;;;6.51;100.00;100996.84;5071794;28;20256;-77
2024/03/23 09:14:30;;;;;;;10.18;2.17;;;;;;;6.49;100.00;100993.44;5043432;28;20029;-77
2024/03/23 09:16:56;;;;;;;9.45;2.08;;;;;;;6.56;100.00;100982.00;5066760;28;20028;-77
2024/03/23 09:19:21;;;;;;;10.73;1.92;;;;;;;6.61;100.00;100994.94;5061467;28;20028;-77
2024/03/23 09:21:46;;;;;;;8.65;1.63;;;;;;;6.59;99.56;100989.75;5065595;28;20047;-77
2024/03/23 09:24:12;;;;;;;6.80;1.90;;;;;;;6.65;99.79;100999.16;5065562;28;20032;-78
2024/03/23 09:26:37;;;;;;;14.90;2.50;;;;;;;6.64;99.42;100992.25;5063552;28;20096;-78
2024/03/23 09:29:03;;;;;;;10.48;1.77;;;;;;;6.61;97.70;100998.38;5058017;28;20139;-76
2024/03/23 09:31:31;;;;;;;14.65;2.10;;;;;;;6.64;98.28;100990.53;5068911;28;20043;-78
2024/03/23 09:33:57;;;;;;;10.80;2.08;;;;;;;6.69;99.03;100991.28;5053558;28;20380;-78
2024/03/23 09:36:22;;;;;;;12.90;2.50;;;;;;;6.78;97.49;100992.78;5070509;28;20088;-78
2024/03/23 09:38:47;;;;;;;12.15;1.67;;;;;;;6.78;97.14;100987.59;5072638;28;20028;-78
2024/03/23 09:41:14;;;;;;;12.85;2.00;;;;;;;6.80;96.27;101000.56;5052272;28;20038;-78
2024/03/23 09:43:39;;;;;;;8.63;1.67;;;;;;;6.89;96.97;100989.94;5072040;28;20059;-78
2024/03/23 09:46:05;;;;;;;8.57;1.80;;;;;;;6.92;95.60;101002.91;5071050;28;20332;-78
2024/03/23 09:48:31;;;;;;;9.93;2.10;;;;;;;6.91;95.59;101017.69;5070975;28;20347;-77
2024/03/23 09:50:56;;;;;;;9.15;2.00;;;;;;;6.92;96.19;101006.34;5070222;28;20045;-78
2024/03/23 09:53:22;;;;;;;5.72;1.33;;;;;;;6.98;96.80;100987.13;5071355;28;20332;-77
2024/03/23 09:55:48;;;;;;;6.50;1.50;;;;;;;6.94;96.36;100989.84;5070135;28;20064;-78
2024/03/23 09:58:15;;;;;;;4.57;1.58;;;;;;;6.96;96.86;100983.72;5053058;28;20051;-77
2024/03/23 10:00:40;;;;;;;18.13;2.83;;;;;;;6.92;96.32;100995.09;5070024;28;20709;-78
2024/03/23 10:03:06;;;;;;;6.63;1.77;;;;;;;6.92;96.89;100995.09;5068015;28;20056;-77
2024/03/23 10:05:34;;;;;;;9.15;1.92;;;;;;;6.91;96.44;100985.56;5070492;28;20051;-82
2024/03/23 10:08:18;;;;;;;7.10;1.63;;;;;;;6.88;96.10;100994.31;5065887;28;20331;-83
2024/03/23 10:10:45;;;;;;;5.93;1.17;;;;;;;6.89;96.19;100977.81;5071062;28;20036;-83
2024/03/23 10:13:12;;;;;;;9.70;1.40;;;;;;;6.98;95.96;100994.94;5066010;28;20062;-83
2024/03/23 10:15:38;;;;;;;12.60;1.55;;;;;;;7.01;96.63;100991.44;5071042;28;20028;-83
2024/03/23 10:18:25;;;;;;;9.48;2.20;;;;;;;6.95;95.30;101009.78;5069525;28;20121;-78
2024/03/23 10:21:06;;;;;;;7.32;1.38;;;;;;;6.90;95.62;100982.09;5065973;28;20099;-78
2024/03/23 10:23:36;;;;;;;15.68;1.85;;;;;;;6.99;96.56;100988.00;5068364;28;20039;-77
2024/03/23 10:26:18;;;;;;;8.02;1.55;;;;;;;6.98;95.67;100988.88;5051276;28;20280;-78
2024/03/23 10:28:54;;;;;;;11.30;2.25;;;;;;;6.96;93.54;100977.66;5065296;28;20033;-77
2024/03/23 10:31:20;;;;;;;8.70;2.00;;;;;;;6.92;93.91;100979.47;5067191;28;20039;-77
2024/03/23 10:33:46;;;;;;;16.70;1.83;;;;;;;6.86;91.26;100990.03;5070535;28;20121;-77
2024/03/23 10:36:12;;;;;;;10.02;1.73;;;;;;;6.94;93.03;100985.50;5067113;28;20035;-77
2024/03/23 10:38:40;;;;;;;10.95;1.60;;;;;;;6.96;91.19;100981.09;5069251;28;20044;-77
2024/03/23 10:41:07;;;;;;;11.43;2.08;;;;;;;7.02;91.53;100985.31;5069373;28;20339;-76
2024/03/23 10:43:33;;;;;;;9.98;1.52;;;;;;;7.12;91.75;100976.41;5066960;28;20040;-76
2024/03/23 10:45:58;;;;;;;9.27;1.70;;;;;;;7.13;89.98;100980.72;5067177;28;20204;-77
2024/03/23 10:48:24;;;;;;;9.60;1.77;;;;;;;7.20;91.21;100978.81;5061416;28;20080;-76
2024/03/23 10:50:49;;;;;;;10.57;1.65;;;;;;;7.28;90.72;100976.88;5066445;28;20227;-76
2024/03/23 10:53:17;;;;;;;14.35;1.67;;;;;;;7.28;88.85;100984.69;5050170;28;20058;-76
2024/03/23 10:55:43;;;;;;;5.75;1.42;;;;;;;7.22;88.35;100971.81;5070393;28;20269;-76
2024/03/23 10:58:12;;;;;;;19.13;1.70;;;;;;;7.29;90.21;100974.25;5063644;28;20317;-76
2024/03/23 11:00:38;;;;;;;8.45;1.75;;;;;;;7.32;90.38;100972.47;5068807;28;20403;-77
2024/03/23 11:03:44;;;;;;;10.05;1.58;;;;;;;7.36;87.99;100958.44;5069265;28;20033;-76
2024/03/23 11:06:35;;;;;;;7.93;1.90;;;;;;;7.45;88.56;100969.47;4986006;28;20070;-76
2024/03/23 11:09:00;;;;;;;6.78;1.77;;;;;;;7.46;89.03;100963.38;5067990;28;20362;-75
2024/03/23 11:11:26;;;;;;;6.57;1.90;;;;;;;7.50;89.13;100965.00;5071070;28;20032;-76
2024/03/23 11:13:53;;;;;;;9.93;2.10;;;;;;;7.54;88.40;100977.97;5070692;28;20020;-76
2024/03/23 11:16:35;;;;;;;7.80;1.80;;;;;;;7.53;88.25;100963.22;5065555;28;20213;-76
2024/03/23 11:19:39;;;;;;;11.35;1.58;;;;;;;7.47;85.16;100964.25;5069410;28;20452;-76
2024/03/23 11:22:05;;;;;;;10.63;1.73;;;;;;;7.50;85.82;100966.78;5070811;28;20032;-76